Terminal Aerodrome Forecast
Issued by NWS

Current Version | Previous Version | Graphics & Text | Print | Product List | Glossary On
Versions: 1 2 3 4 5 6 7 8 9 10 11 12 13 14 15 16 17 18 19
555
FTUS41 KILN 102056 AAA
TAFLUK
TAF AMD
KLUK 102056Z 1021/1118 26012KT P6SM VCSH BKN028 OVC040
      TEMPO 1021/1022 5SM -SN
     FM110000 28008KT P6SM SCT040 BKN150
     FM110600 29004KT P6SM SCT040 SCT100=

USA.gov is the U.S. government's official web portal to all federal, state and local government web resources and services.